CYEVCYVQ

Guest
Details From CYEV - INUVIK MIKE ZUBKO
To CYVQ - NORMAN WELLS
Flight Number -
Tags generated
Created
Modified
Stats Distance 243 nm / 450 km
Max Altitude 17,000 ft / 5,182 m
Waypoints 4
Social Downloads 0
Likes 0
Share VATSIM

Download

Looking for another format? Having issues loading an existing format? Contact us
Advertisement - Login to hide

Notes

Basic altitude profile: - Ascent Rate: 2500ft/min - Ascent Speed: 250kts - Cruise Altitude: 35000ft - Cruise Speed: 420kts - Descent Rate: 1500ft/min - Descent Speed: 250kts Options: - Use NATs: yes - Use PACOTS: yes - Use low airways: yes - Use high airways: yes

Route

CYEV YEV J516 YGH CYVQ

ID Type Via Altitude Latitude Longitude Leg Dist Tot Dist Heading (true) Name
O CYEV APT - 0 ft / 0 m 68.30379˚ -133.48317˚ - 0 nm - INUVIK MIKE ZUBKO
YEV VOR - 500 ft / 152 m 68.30806˚ -133.54825˚ 1 nm 1 nm 280° / 280° INUVIK VOR-DME
YGH VOR J516 (AWY-HI) 17,000 ft / 5,182 m 66.23628˚ -128.62306˚ 168 nm 170 nm 135° / 140° FORT GOOD HOPE VOR-DME
O CYVQ APT - 0 ft / 0 m 65.28162˚ -126.79822˚ 72 nm 243 nm 141° / 143° NORMAN WELLS

Altitude Profile

Advertisement - Login to hide

Weather


0- 5 10 15 20 25 30 35+ Temperature / ° C

Clouds and Precipitation
Forecast for 2018-05-28 00:00 UTC. Updated 9 hours ago

Ground ~20,000 ft ~40,000 ft Winds

CYEV

Details ICAO CYEV (YEV)
Name INUVIK MIKE ZUBKO
Region Canada
Timezone America/Inuvik (UTC-6.0)
Stats Elevation 224 ft / 68 m (AMSL)
Location 68.303792° -133.483167°
Runways 1
Magnetic Variation 21.347° E

METAR

Not found

TAF

TAF CYEV 280038Z 2801/2813 35005KT P6SM OVC015 TEMPO 2801/2813 P6SM -SN SCT006 OVC008 BECMG 2801/2803 02008KT RMK NXT FCST BY 280700Z

Decode

Departure Runways

ID Width Length Bearing (true) Bearing (mag) Surface Threshold Offset Overrun Length
06 150 ft / 46 m 5,982 ft / 1,823 m 85.80° 64.45° Asphalt 0 ft / 0 m 0 ft / 0 m
24 150 ft / 46 m 5,982 ft / 1,823 m 265.84° 244.49° Asphalt 0 ft / 0 m 0 ft / 0 m

CYVQ

Details ICAO CYVQ (YVQ)
Name NORMAN WELLS
Region Canada
Timezone America/Yellowknife (UTC-6.0)
Stats Elevation 238 ft / 73 m (AMSL)
Location 65.281616° -126.798222°
Runways 1
Magnetic Variation 20.832° E

METAR

Not found

TAF

TAF CYVQ 272338Z 2800/2812 28010KT P6SM FEW020 BKN040 OVC070 TEMPO 2800/2812 P6SM -RA BKN020 OVC040 RMK NXT FCST BY 280600Z

Decode

Destination Runways

ID Width Length Bearing (true) Bearing (mag) Surface Threshold Offset Overrun Length
09 150 ft / 46 m 5,977 ft / 1,822 m 118.74° 97.91° Asphalt 0 ft / 0 m 0 ft / 0 m
27 150 ft / 46 m 5,977 ft / 1,822 m 298.78° 277.95° Asphalt 0 ft / 0 m 0 ft / 0 m

Popular Alternatives